Time;durP1;ratioP1;P1;durP2;ratioP2;P2;SDS_P1;SDS_P2;PMS_P1;PMS_P2;Temp;Humidity;BMP_temperature;BMP_pressure;BME280_temperature;BME280_humidity;BME280_pressure;Samples;Min_cycle;Max_cycle;Signal;HPM_P1;HPM_P2
2022/03/17 00:00:40;;;;;;;26.77;23.90;;;9.70;99.90;;;;;;5019277;28;20215;-77
2022/03/17 00:03:07;;;;;;;27.92;24.92;;;9.70;99.90;;;;;;5056425;28;20199;-78
2022/03/17 00:05:34;;;;;;;29.33;25.63;;;9.70;99.90;;;;;;5028595;28;20271;-77
2022/03/17 00:08:02;;;;;;;34.83;29.27;;;9.80;99.90;;;;;;5027353;28;20265;-77
2022/03/17 00:10:29;;;;;;;30.13;24.85;;;9.70;99.90;;;;;;5021142;28;20254;-76
2022/03/17 00:12:56;;;;;;;27.90;23.67;;;9.80;99.90;;;;;;5025093;28;20607;-76
2022/03/17 00:15:23;;;;;;;26.73;23.83;;;9.80;99.90;;;;;;5024490;28;20227;-77
2022/03/17 00:17:53;;;;;;;29.33;24.05;;;9.80;99.90;;;;;;5028460;28;20231;-77
2022/03/17 00:20:23;;;;;;;30.52;25.55;;;9.80;99.90;;;;;;5021895;28;20795;-76
2022/03/17 00:22:50;;;;;;;33.25;26.50;;;9.70;99.90;;;;;;5024239;28;20722;-77
2022/03/17 00:25:17;;;;;;;32.15;27.45;;;9.70;99.90;;;;;;5020853;28;20227;-76
2022/03/17 00:27:45;;;;;;;30.55;27.10;;;9.60;99.90;;;;;;5023893;28;20242;-77
2022/03/17 00:30:12;;;;;;;29.50;26.17;;;9.50;99.90;;;;;;5026044;28;20220;-78
2022/03/17 00:32:39;;;;;;;36.45;28.65;;;9.40;99.90;;;;;;5025455;28;20196;-78
2022/03/17 00:37:54;;;;;;;32.08;27.17;;;9.30;99.90;;;;;;5020385;28;20226;-78
2022/03/17 00:40:22;;;;;;;29.20;26.10;;;9.30;99.90;;;;;;5022441;28;20772;-78
2022/03/17 00:42:49;;;;;;;29.02;25.65;;;9.20;99.90;;;;;;5026280;28;20202;-76
2022/03/17 00:45:16;;;;;;;30.05;26.10;;;9.20;99.90;;;;;;5030558;28;20840;-76
2022/03/17 00:47:43;;;;;;;30.45;27.15;;;9.20;99.90;;;;;;5028355;28;20237;-76
2022/03/17 00:50:12;;;;;;;29.60;25.83;;;9.10;99.90;;;;;;5020417;28;20635;-76
2022/03/17 00:52:39;;;;;;;29.95;26.75;;;9.10;99.90;;;;;;5021073;28;20731;-78
2022/03/17 00:55:07;;;;;;;30.33;25.95;;;9.10;99.90;;;;;;5026237;28;20223;-79
2022/03/17 00:57:36;;;;;;;27.85;24.85;;;9.00;99.90;;;;;;5014269;28;20216;-77
2022/03/17 01:00:05;;;;;;;29.05;25.90;;;9.00;99.90;;;;;;5023587;28;20232;-76
2022/03/17 01:02:32;;;;;;;30.92;27.20;;;9.00;99.90;;;;;;5022065;28;20310;-77
2022/03/17 01:04:59;;;;;;;32.10;27.35;;;9.00;99.90;;;;;;5020367;28;20227;-78
2022/03/17 01:07:27;;;;;;;33.17;28.70;;;9.00;99.90;;;;;;5027515;28;20281;-78
2022/03/17 01:09:54;;;;;;;31.23;27.00;;;9.00;99.90;;;;;;5026372;28;20269;-76
2022/03/17 01:12:21;;;;;;;29.80;25.00;;;9.00;99.90;;;;;;5019443;28;20294;-76
2022/03/17 01:14:48;;;;;;;28.73;25.52;;;9.00;99.90;;;;;;5021006;28;20635;-77
2022/03/17 01:17:15;;;;;;;28.55;25.45;;;9.00;99.90;;;;;;5021648;28;20219;-77
2022/03/17 01:19:43;;;;;;;28.55;24.45;;;9.10;99.90;;;;;;5029594;28;20231;-77
2022/03/17 01:22:11;;;;;;;28.23;24.40;;;9.10;99.90;;;;;;5021714;28;20191;-77
2022/03/17 01:24:39;;;;;;;30.27;26.65;;;9.10;99.90;;;;;;5020851;28;20200;-78
2022/03/17 01:27:06;;;;;;;27.23;23.88;;;9.10;99.90;;;;;;5028465;28;20337;-76
2022/03/17 01:29:33;;;;;;;29.55;25.70;;;9.10;99.90;;;;;;5041416;28;20195;-77
2022/03/17 01:32:01;;;;;;;29.33;26.15;;;9.10;99.90;;;;;;5030922;28;20257;-78
2022/03/17 01:34:28;;;;;;;29.13;25.98;;;9.00;99.90;;;;;;5027493;28;20223;-78
2022/03/17 01:36:55;;;;;;;30.80;26.52;;;9.00;99.90;;;;;;5027675;28;20279;-77
2022/03/17 01:39:23;;;;;;;29.42;26.13;;;8.90;99.90;;;;;;5024805;28;20287;-77
2022/03/17 01:41:51;;;;;;;31.05;25.45;;;8.90;99.90;;;;;;5021235;28;20220;-76
2022/03/17 01:44:18;;;;;;;31.52;26.70;;;8.90;99.90;;;;;;5023928;28;20203;-77
2022/03/17 01:49:30;;;;;;;29.70;26.08;;;8.80;99.90;;;;;;5141871;22;20827;-78
2022/03/17 01:51:57;;;;;;;27.15;24.17;;;8.90;99.90;;;;;;5056695;28;20195;-78
2022/03/17 01:54:25;;;;;;;27.20;23.95;;;8.80;99.90;;;;;;5057612;28;20665;-78
2022/03/17 01:56:54;;;;;;;29.45;26.15;;;8.80;99.90;;;;;;5059028;28;20291;-77
2022/03/17 01:59:22;;;;;;;30.33;27.02;;;8.80;99.90;;;;;;5047400;28;20223;-76
2022/03/17 02:01:50;;;;;;;31.20;27.17;;;8.80;99.90;;;;;;5044758;28;20218;-78
2022/03/17 02:04:17;;;;;;;31.00;27.08;;;8.70;99.90;;;;;;5044803;28;20270;-81
2022/03/17 02:06:44;;;;;;;27.05;23.80;;;8.70;99.90;;;;;;5043760;28;20242;-80
2022/03/17 02:09:11;;;;;;;28.85;24.63;;;8.60;99.90;;;;;;5041203;28;20226;-79
2022/03/17 02:14:24;;;;;;;32.53;28.60;;;8.60;99.90;;;;;;5039952;28;20205;-79
2022/03/17 02:16:51;;;;;;;34.58;27.48;;;8.60;99.90;;;;;;5040047;28;20234;-79
2022/03/17 02:19:20;;;;;;;32.90;27.33;;;8.50;99.90;;;;;;5042273;28;20291;-77
2022/03/17 02:21:48;;;;;;;33.30;27.48;;;8.50;99.90;;;;;;5041828;28;20252;-78
2022/03/17 02:27:02;;;;;;;36.03;28.80;;;8.40;99.90;;;;;;5041133;28;20331;-78
2022/03/17 02:29:31;;;;;;;33.58;27.38;;;8.40;99.90;;;;;;5046167;28;20306;-78
2022/03/17 02:31:59;;;;;;;32.63;26.75;;;8.40;99.90;;;;;;5040726;28;20218;-77
2022/03/17 02:34:26;;;;;;;29.30;26.10;;;8.40;99.90;;;;;;5047581;28;20719;-78
2022/03/17 02:36:54;;;;;;;31.77;26.52;;;8.40;99.90;;;;;;5049106;28;20229;-77
2022/03/17 02:39:22;;;;;;;31.38;27.65;;;8.40;99.90;;;;;;5047285;28;20882;-77
2022/03/17 02:41:49;;;;;;;32.15;28.23;;;8.40;99.90;;;;;;5047097;28;20261;-78
2022/03/17 02:44:17;;;;;;;33.88;28.42;;;8.40;99.90;;;;;;5048496;28;20234;-78
2022/03/17 02:46:44;;;;;;;30.60;27.17;;;8.40;99.90;;;;;;5047757;28;20223;-77
2022/03/17 02:49:15;;;;;;;31.20;26.98;;;8.40;99.90;;;;;;5045963;28;20219;-79
2022/03/17 02:51:42;;;;;;;33.50;27.10;;;8.40;99.90;;;;;;5047766;28;20219;-78
2022/03/17 02:54:09;;;;;;;28.77;25.48;;;8.30;99.90;;;;;;5050860;28;20269;-79
2022/03/17 02:56:37;;;;;;;33.33;28.17;;;8.30;99.90;;;;;;5052372;28;20234;-76
2022/03/17 02:59:04;;;;;;;32.75;28.13;;;8.30;99.90;;;;;;5045563;28;20704;-78
2022/03/17 03:01:31;;;;;;;34.25;29.50;;;8.20;99.90;;;;;;5046674;28;20284;-76
2022/03/17 03:03:58;;;;;;;34.15;28.92;;;8.30;99.90;;;;;;5047081;28;20345;-80
2022/03/17 03:06:25;;;;;;;35.08;28.85;;;8.20;99.90;;;;;;5048346;28;20230;-78
2022/03/17 03:08:52;;;;;;;36.33;29.10;;;8.20;99.90;;;;;;5052003;28;20623;-78
2022/03/17 03:11:20;;;;;;;31.33;27.48;;;8.20;99.90;;;;;;5048526;28;20237;-77
2022/03/17 03:13:49;;;;;;;30.38;27.08;;;8.10;99.90;;;;;;5052697;28;20203;-78
2022/03/17 03:16:16;;;;;;;30.15;26.70;;;8.10;99.90;;;;;;5045910;28;20229;-77
2022/03/17 03:18:44;;;;;;;31.65;26.58;;;8.10;99.90;;;;;;5047797;28;20630;-76
2022/03/17 03:21:11;;;;;;;30.38;26.88;;;8.20;99.90;;;;;;5048875;28;20223;-76
2022/03/17 03:23:38;;;;;;;31.98;26.35;;;8.20;99.90;;;;;;5047959;28;20195;-77
2022/03/17 03:26:05;;;;;;;32.75;27.25;;;8.20;99.90;;;;;;5047042;28;20214;-78
2022/03/17 03:28:32;;;;;;;30.95;26.63;;;8.20;99.90;;;;;;5044709;28;20233;-76
2022/03/17 03:31:01;;;;;;;32.70;27.33;;;8.20;99.90;;;;;;5048705;28;20222;-77
2022/03/17 03:33:28;;;;;;;32.47;27.92;;;8.30;99.90;;;;;;5046549;28;20231;-77
2022/03/17 03:38:39;;;;;;;32.72;27.58;;;8.20;99.90;;;;;;5049170;28;20214;-76
2022/03/17 03:41:06;;;;;;;32.67;27.48;;;8.20;99.90;;;;;;5042546;28;20223;-78
2022/03/17 03:43:33;;;;;;;32.10;27.42;;;8.20;99.90;;;;;;5043175;28;20656;-77
2022/03/17 03:46:01;;;;;;;33.47;27.83;;;8.20;99.90;;;;;;5048173;28;20218;-78
2022/03/17 03:48:28;;;;;;;32.75;26.40;;;8.10;99.90;;;;;;5046400;28;20218;-78
2022/03/17 03:50:55;;;;;;;31.88;27.35;;;8.10;99.90;;;;;;5047741;28;20218;-77
2022/03/17 03:53:22;;;;;;;32.08;27.42;;;8.10;99.90;;;;;;5049247;28;20206;-77
2022/03/17 03:55:49;;;;;;;29.75;24.92;;;8.10;99.90;;;;;;5047642;28;20688;-77
2022/03/17 03:58:18;;;;;;;32.70;27.42;;;8.10;99.90;;;;;;5046194;28;20226;-77
2022/03/17 04:00:45;;;;;;;30.88;26.15;;;8.10;99.90;;;;;;5049965;28;20215;-78
2022/03/17 04:03:15;;;;;;;30.45;26.60;;;8.00;99.90;;;;;;5053121;28;20203;-78
2022/03/17 04:05:42;;;;;;;34.58;29.27;;;8.00;99.90;;;;;;5046497;28;20309;-78
2022/03/17 04:08:09;;;;;;;33.17;27.77;;;8.00;99.90;;;;;;5053073;28;20284;-79
2022/03/17 04:10:36;;;;;;;30.08;26.77;;;8.00;99.90;;;;;;5046807;28;20406;-77
2022/03/17 04:13:03;;;;;;;33.75;26.98;;;8.00;99.90;;;;;;5047194;28;20578;-75
2022/03/17 04:15:30;;;;;;;29.58;25.38;;;8.00;99.90;;;;;;5050310;28;20279;-76
2022/03/17 04:17:57;;;;;;;32.58;26.80;;;7.90;99.90;;;;;;5047657;28;20711;-77
2022/03/17 04:20:26;;;;;;;33.92;28.83;;;7.90;99.90;;;;;;5047825;28;20229;-78
2022/03/17 04:22:53;;;;;;;37.53;29.23;;;7.90;99.90;;;;;;5047771;28;20233;-77
2022/03/17 04:25:20;;;;;;;32.22;27.33;;;7.80;99.90;;;;;;5050112;28;20214;-77
2022/03/17 04:27:47;;;;;;;36.33;29.75;;;7.80;99.90;;;;;;5051234;28;20271;-76
2022/03/17 04:30:15;;;;;;;34.65;29.98;;;7.80;99.90;;;;;;5046531;28;20238;-77
2022/03/17 04:32:42;;;;;;;35.75;29.58;;;7.80;99.90;;;;;;5051659;28;20203;-77
2022/03/17 04:35:09;;;;;;;35.17;29.52;;;7.80;99.90;;;;;;5049286;28;20506;-77
2022/03/17 04:37:38;;;;;;;35.17;29.30;;;7.80;99.90;;;;;;5045766;28;20199;-77
2022/03/17 04:40:06;;;;;;;36.33;29.45;;;7.70;99.90;;;;;;5048301;28;20230;-77
2022/03/17 04:42:33;;;;;;;34.88;29.52;;;7.80;99.90;;;;;;5050426;28;20857;-75
2022/03/17 04:45:00;;;;;;;33.42;27.42;;;7.70;99.90;;;;;;5047922;28;20199;-76
2022/03/17 04:47:27;;;;;;;33.78;27.52;;;7.70;99.90;;;;;;5047109;28;20432;-77
2022/03/17 04:49:54;;;;;;;30.85;26.15;;;7.70;99.90;;;;;;5047630;28;20227;-76
2022/03/17 04:55:07;;;;;;;32.63;27.80;;;7.60;99.90;;;;;;5048439;28;20223;-75
2022/03/17 04:57:34;;;;;;;35.17;29.80;;;7.60;99.90;;;;;;5041877;28;20484;-76
2022/03/17 05:00:02;;;;;;;32.38;27.88;;;7.60;99.90;;;;;;5047188;28;20226;-78
2022/03/17 05:02:29;;;;;;;32.80;28.77;;;7.60;99.90;;;;;;5050165;28;20784;-76
2022/03/17 05:04:56;;;;;;;35.72;27.88;;;7.60;99.90;;;;;;5046512;28;20240;-76
2022/03/17 05:07:23;;;;;;;35.00;29.85;;;7.60;99.90;;;;;;5044915;28;20234;-78
2022/03/17 05:09:50;;;;;;;36.67;30.38;;;7.60;99.90;;;;;;5033434;28;20640;-76
2022/03/17 05:12:18;;;;;;;36.00;28.25;;;7.60;99.90;;;;;;5042248;28;20222;-79
2022/03/17 05:14:45;;;;;;;34.55;27.27;;;7.50;99.90;;;;;;5045520;28;20195;-76
2022/03/17 05:17:12;;;;;;;36.80;29.88;;;7.60;99.90;;;;;;5048400;28;20242;-76
2022/03/17 05:19:39;;;;;;;33.95;27.77;;;7.60;99.90;;;;;;5040083;28;20623;-77
2022/03/17 05:22:06;;;;;;;32.13;27.67;;;7.60;99.90;;;;;;5049033;28;20517;-79
2022/03/17 05:24:33;;;;;;;32.63;28.50;;;7.60;99.90;;;;;;5039137;28;21476;-77
2022/03/17 05:27:00;;;;;;;30.30;25.88;;;7.60;99.90;;;;;;5047380;28;20314;-78
2022/03/17 05:29:29;;;;;;;34.03;28.27;;;7.50;99.90;;;;;;5046281;28;20217;-79
2022/03/17 05:31:56;;;;;;;34.38;29.02;;;7.50;99.90;;;;;;5045746;28;20232;-76
2022/03/17 05:34:23;;;;;;;34.63;28.63;;;7.50;99.90;;;;;;5049707;28;20210;-76
2022/03/17 05:36:50;;;;;;;36.10;29.77;;;7.50;99.90;;;;;;5045404;28;20713;-77
2022/03/17 05:39:17;;;;;;;36.08;31.90;;;7.50;99.90;;;;;;5047623;28;20631;-78
2022/03/17 05:41:44;;;;;;;34.78;30.10;;;7.40;99.90;;;;;;5043604;28;20226;-76
2022/03/17 05:44:11;;;;;;;34.22;28.92;;;7.40;99.90;;;;;;5051859;28;20221;-79
2022/03/17 05:46:40;;;;;;;35.20;28.85;;;7.40;99.90;;;;;;5046860;28;20223;-77
2022/03/17 05:49:07;;;;;;;36.28;31.38;;;7.40;99.90;;;;;;5047128;28;20222;-76
2022/03/17 05:51:34;;;;;;;37.33;31.58;;;7.40;99.90;;;;;;5046913;28;20230;-76
2022/03/17 05:54:01;;;;;;;37.15;30.90;;;7.50;99.90;;;;;;5042179;28;20207;-80
2022/03/17 05:56:28;;;;;;;33.97;29.35;;;7.40;99.90;;;;;;5048084;28;20226;-76
2022/03/17 05:58:55;;;;;;;35.80;30.83;;;7.40;99.90;;;;;;5048754;28;20681;-78
2022/03/17 06:01:22;;;;;;;34.80;29.17;;;7.40;99.90;;;;;;5041720;28;20215;-77
2022/03/17 06:03:51;;;;;;;33.80;28.00;;;7.40;99.90;;;;;;5041801;28;20199;-79
2022/03/17 06:06:18;;;;;;;36.88;30.70;;;7.40;99.90;;;;;;5049669;28;20637;-77
2022/03/17 06:08:45;;;;;;;35.45;29.77;;;7.40;99.90;;;;;;5052488;28;20242;-76
2022/03/17 06:11:12;;;;;;;33.58;28.92;;;7.50;99.90;;;;;;5044394;28;20219;-76
2022/03/17 06:13:39;;;;;;;35.30;28.73;;;7.50;99.90;;;;;;5046146;28;20566;-76
2022/03/17 06:16:06;;;;;;;36.45;28.85;;;7.50;99.90;;;;;;5049394;28;20218;-79
2022/03/17 06:18:33;;;;;;;36.45;29.75;;;7.50;99.90;;;;;;5044520;28;20306;-76
2022/03/17 06:21:02;;;;;;;36.30;30.02;;;7.50;99.90;;;;;;5054646;28;20231;-76
2022/03/17 06:23:29;;;;;;;36.88;31.48;;;7.50;99.90;;;;;;5054595;28;20355;-77
2022/03/17 06:25:56;;;;;;;35.53;29.80;;;7.60;99.90;;;;;;5052408;28;20288;-78
2022/03/17 06:28:23;;;;;;;34.95;30.25;;;7.60;99.90;;;;;;5056273;28;20683;-75
2022/03/17 06:30:51;;;;;;;33.80;28.60;;;7.70;99.90;;;;;;5052244;28;20218;-78
2022/03/17 06:33:18;;;;;;;30.20;26.90;;;7.80;99.90;;;;;;5056515;28;20291;-77
2022/03/17 06:35:45;;;;;;;37.10;31.35;;;7.90;99.90;;;;;;5048036;28;20218;-76
2022/03/17 06:38:13;;;;;;;37.35;31.02;;;7.90;99.90;;;;;;5053216;28;20214;-78
2022/03/17 06:40:41;;;;;;;35.30;29.90;;;7.90;99.90;;;;;;5043543;28;20226;-77
2022/03/17 06:43:08;;;;;;;36.50;30.33;;;8.00;99.90;;;;;;5053511;28;20195;-76
2022/03/17 06:45:35;;;;;;;34.95;29.27;;;8.10;99.90;;;;;;5052201;28;20227;-77
2022/03/17 06:48:02;;;;;;;34.67;30.08;;;8.20;99.90;;;;;;5050881;28;20237;-79
2022/03/17 06:50:30;;;;;;;33.30;28.40;;;8.20;99.90;;;;;;5052489;28;20196;-78
2022/03/17 06:52:57;;;;;;;39.28;30.65;;;8.30;99.90;;;;;;5051128;28;20214;-78
2022/03/17 06:55:25;;;;;;;38.80;32.63;;;8.30;99.90;;;;;;5053391;28;20665;-77
2022/03/17 06:57:53;;;;;;;40.08;31.92;;;8.40;99.90;;;;;;5053060;28;20219;-77
2022/03/17 07:00:20;;;;;;;33.85;29.33;;;8.40;99.90;;;;;;5046094;28;20214;-75
2022/03/17 07:02:48;;;;;;;33.60;28.92;;;8.50;99.90;;;;;;5053407;28;20279;-78
2022/03/17 07:05:15;;;;;;;36.42;30.67;;;8.50;99.90;;;;;;5053461;28;20542;-77
2022/03/17 07:07:44;;;;;;;37.63;31.90;;;8.50;99.90;;;;;;5053447;28;20293;-77
2022/03/17 07:10:12;;;;;;;41.80;36.30;;;8.60;99.90;;;;;;5051181;28;20249;-76
2022/03/17 07:12:41;;;;;;;41.30;35.15;;;8.70;99.90;;;;;;5054095;28;20223;-76
2022/03/17 07:15:09;;;;;;;41.78;34.20;;;8.80;99.90;;;;;;5053282;28;20202;-76
2022/03/17 07:17:39;;;;;;;40.10;32.70;;;9.00;99.90;;;;;;5058212;28;20218;-78
2022/03/17 07:20:08;;;;;;;38.60;32.20;;;9.10;99.90;;;;;;5054493;28;20210;-74
2022/03/17 07:22:35;;;;;;;37.88;31.35;;;9.30;99.90;;;;;;5052241;28;20220;-78
2022/03/17 07:25:03;;;;;;;38.10;32.88;;;9.40;99.90;;;;;;5046947;28;20865;-76
2022/03/17 07:27:32;;;;;;;41.67;35.13;;;9.50;99.90;;;;;;5050454;28;20225;-80
2022/03/17 07:30:02;;;;;;;39.30;32.47;;;9.60;99.90;;;;;;5047205;28;20249;-77
2022/03/17 07:32:29;;;;;;;41.20;35.47;;;9.60;99.90;;;;;;5056739;28;20257;-77
2022/03/17 07:34:56;;;;;;;41.03;34.65;;;9.70;99.90;;;;;;5046252;28;20368;-77
2022/03/17 07:37:23;;;;;;;39.83;33.97;;;9.80;99.90;;;;;;5041973;28;20218;-80
2022/03/17 07:39:50;;;;;;;39.42;32.55;;;9.90;99.90;;;;;;5048013;28;20234;-75
2022/03/17 07:42:17;;;;;;;39.22;33.28;;;10.00;99.90;;;;;;5042369;28;20230;-75
2022/03/17 07:44:44;;;;;;;40.97;34.75;;;10.10;99.90;;;;;;5045479;28;20281;-75
2022/03/17 07:47:13;;;;;;;47.13;36.33;;;10.20;99.90;;;;;;5045849;28;20724;-79
2022/03/17 07:49:40;;;;;;;41.95;35.45;;;10.30;99.90;;;;;;5083280;22;20395;-72
2022/03/17 07:52:08;;;;;;;41.90;35.10;;;10.40;99.90;;;;;;5024081;28;20314;-70
2022/03/17 07:54:36;;;;;;;44.55;36.97;;;10.60;99.90;;;;;;5023259;28;20200;-71
2022/03/17 07:57:04;;;;;;;42.10;34.42;;;10.60;99.90;;;;;;5025317;28;20220;-70
2022/03/17 07:59:32;;;;;;;38.83;34.00;;;10.70;99.90;;;;;;5010413;28;20305;-69
2022/03/17 08:01:59;;;;;;;42.00;34.75;;;10.80;99.90;;;;;;4996205;28;20733;-68
2022/03/17 08:04:28;;;;;;;39.88;35.10;;;11.00;99.90;;;;;;4998208;28;20386;-69
2022/03/17 08:06:57;;;;;;;43.75;35.00;;;11.00;99.90;;;;;;5002027;28;20247;-70
2022/03/17 08:09:25;;;;;;;42.35;35.47;;;11.10;99.90;;;;;;4997679;28;20277;-73
2022/03/17 08:11:52;;;;;;;43.20;35.47;;;11.30;99.90;;;;;;4999372;28;20286;-69
2022/03/17 08:14:20;;;;;;;42.17;33.33;;;11.40;99.90;;;;;;5000718;28;20211;-70
2022/03/17 08:16:47;;;;;;;40.40;33.40;;;11.50;99.90;;;;;;4995380;28;20749;-68
2022/03/17 08:19:15;;;;;;;45.00;35.75;;;11.50;99.90;;;;;;4999725;28;20624;-71
2022/03/17 08:21:43;;;;;;;39.40;33.70;;;11.50;99.90;;;;;;4995574;28;20220;-69
2022/03/17 08:24:10;;;;;;;38.10;33.90;;;11.40;99.90;;;;;;4997704;28;20227;-69
2022/03/17 08:26:38;;;;;;;41.83;34.65;;;11.40;99.90;;;;;;4997606;28;20698;-69
2022/03/17 08:29:05;;;;;;;44.13;36.03;;;11.30;99.90;;;;;;4997239;28;20311;-70
2022/03/17 08:31:33;;;;;;;40.95;35.22;;;11.30;99.90;;;;;;4997870;28;20680;-70
2022/03/17 08:34:00;;;;;;;40.28;34.65;;;11.30;99.90;;;;;;5001938;28;20647;-69
2022/03/17 08:36:28;;;;;;;40.75;34.30;;;11.30;99.90;;;;;;4994543;28;20216;-69
2022/03/17 08:38:56;;;;;;;42.38;35.17;;;11.30;99.90;;;;;;5000386;28;20216;-69
2022/03/17 08:41:24;;;;;;;47.45;35.40;;;11.30;99.90;;;;;;4999304;28;20240;-70
2022/03/17 08:43:52;;;;;;;40.47;35.88;;;11.20;99.90;;;;;;5000272;28;20208;-69
2022/03/17 08:49:20;;;;;;;39.70;34.38;;;10.90;99.90;;;;;;5003455;28;20719;-71
2022/03/17 08:51:47;;;;;;;45.03;37.00;;;10.80;99.90;;;;;;5001126;28;20219;-74
2022/03/17 08:54:16;;;;;;;43.05;36.15;;;10.90;99.90;;;;;;4998573;28;20224;-72
2022/03/17 08:56:43;;;;;;;50.80;35.63;;;11.00;99.90;;;;;;4998985;28;20354;-69
2022/03/17 08:59:11;;;;;;;41.92;34.97;;;11.10;99.90;;;;;;5003889;28;20224;-72
2022/03/17 09:01:38;;;;;;;44.72;36.00;;;11.20;99.90;;;;;;4999558;28;20785;-71
2022/03/17 09:04:05;;;;;;;46.55;38.05;;;11.30;99.90;;;;;;5005187;28;20204;-70
2022/03/17 09:06:32;;;;;;;44.65;35.38;;;11.40;99.90;;;;;;5004957;28;20271;-71
2022/03/17 09:08:59;;;;;;;44.42;36.78;;;11.50;99.90;;;;;;5002985;28;20223;-71
2022/03/17 09:11:28;;;;;;;48.33;38.75;;;11.60;99.90;;;;;;5004770;28;20279;-76
2022/03/17 09:13:58;;;;;;;40.53;35.05;;;11.50;99.90;;;;;;5746078;22;20249;-69
2022/03/17 09:16:25;;;;;;;48.55;38.47;;;11.60;99.90;;;;;;5053091;28;20229;-72
2022/03/17 09:18:52;;;;;;;45.72;39.53;;;11.60;99.90;;;;;;5055498;28;20801;-73
2022/03/17 09:21:19;;;;;;;43.55;38.03;;;11.60;99.90;;;;;;5059888;28;20219;-72
2022/03/17 09:23:46;;;;;;;42.08;37.08;;;11.60;99.90;;;;;;5057330;28;20198;-73
2022/03/17 09:26:14;;;;;;;45.22;37.65;;;11.70;99.90;;;;;;5059266;28;20210;-71
2022/03/17 09:28:43;;;;;;;43.90;37.55;;;11.90;99.90;;;;;;5055604;28;20603;-71
2022/03/17 09:31:11;;;;;;;44.13;37.63;;;12.10;99.90;;;;;;5055755;28;20201;-76
2022/03/17 09:36:06;;;;;;;40.97;35.75;;;12.30;99.90;;;;;;5075248;22;20640;-74
2022/03/17 09:38:33;;;;;;;42.35;36.90;;;12.40;99.90;;;;;;5056508;28;20198;-77
2022/03/17 09:41:23;;;;;;;41.72;37.00;;;12.50;99.90;;;;;;5058785;28;20710;-74
2022/03/17 09:43:50;;;;;;;48.03;37.17;;;12.90;99.90;;;;;;5057327;28;20260;-77
2022/03/17 09:46:21;;;;;;;42.95;36.58;;;13.10;99.90;;;;;;5059502;28;20198;-74
2022/03/17 09:48:52;;;;;;;41.30;35.97;;;13.30;99.90;;;;;;5059075;28;20293;-77
2022/03/17 09:51:23;;;;;;;44.35;37.08;;;13.40;99.90;;;;;;5057644;28;20191;-77
2022/03/17 09:53:53;;;;;;;44.25;38.30;;;13.50;99.90;;;;;;5060317;28;20604;-76
2022/03/17 09:56:20;;;;;;;44.70;37.70;;;13.40;99.90;;;;;;5060660;28;20195;-75
2022/03/17 09:58:47;;;;;;;51.17;39.55;;;13.50;99.90;;;;;;5065100;28;20307;-73
2022/03/17 10:01:18;;;;;;;43.47;37.50;;;13.60;99.90;;;;;;5060888;28;20222;-76
2022/03/17 10:03:45;;;;;;;45.53;39.33;;;13.70;99.90;;;;;;5060459;28;20313;-75
2022/03/17 10:06:14;;;;;;;48.10;40.28;;;13.80;99.90;;;;;;5059487;28;20198;-75
2022/03/17 10:08:42;;;;;;;43.10;36.45;;;14.00;99.90;;;;;;5065225;28;20306;-77
2022/03/17 10:11:14;;;;;;;43.33;36.80;;;14.10;99.90;;;;;;5077621;28;20599;-76
2022/03/17 10:13:45;;;;;;;46.33;39.20;;;14.10;99.90;;;;;;5056266;28;20256;-76
2022/03/17 10:16:15;;;;;;;40.70;35.88;;;14.00;99.90;;;;;;5057703;28;20303;-75
2022/03/17 10:18:45;;;;;;;45.88;38.67;;;14.10;99.90;;;;;;5057927;28;20264;-77
2022/03/17 10:21:16;;;;;;;45.65;35.95;;;14.00;99.90;;;;;;5059674;28;20222;-77
2022/03/17 10:23:49;;;;;;;43.42;36.88;;;13.90;99.90;;;;;;5063931;28;20214;-76
2022/03/17 10:26:37;;;;;;;38.60;33.17;;;13.90;99.90;;;;;;5055640;28;20199;-76
2022/03/17 10:29:06;;;;;;;42.58;37.47;;;13.80;99.90;;;;;;5058238;28;20221;-77
2022/03/17 10:31:33;;;;;;;43.03;36.65;;;13.70;99.90;;;;;;5057533;28;20194;-76
2022/03/17 10:34:05;;;;;;;40.33;35.92;;;13.60;99.90;;;;;;5058727;28;20772;-76
2022/03/17 10:36:34;;;;;;;41.10;35.10;;;13.60;99.90;;;;;;5056677;28;20206;-76
2022/03/17 10:39:08;;;;;;;42.00;35.40;;;13.50;99.90;;;;;;5057183;28;20233;-74
2022/03/17 10:41:41;;;;;;;41.33;36.78;;;13.40;99.90;;;;;;5059538;28;20321;-76
2022/03/17 10:44:12;;;;;;;42.25;35.45;;;13.40;99.90;;;;;;5058847;28;20256;-76
2022/03/17 10:46:39;;;;;;;44.45;38.70;;;13.40;99.90;;;;;;5055880;28;20200;-76
2022/03/17 10:49:08;;;;;;;41.08;36.53;;;13.30;99.90;;;;;;5054827;28;20603;-77
2022/03/17 10:51:37;;;;;;;41.45;35.40;;;13.40;99.90;;;;;;5063318;28;20195;-76
2022/03/17 10:54:06;;;;;;;44.75;36.25;;;13.40;99.90;;;;;;5062213;28;20222;-75
2022/03/17 10:56:38;;;;;;;45.03;38.17;;;13.50;99.90;;;;;;5061137;28;20195;-76
2022/03/17 10:59:07;;;;;;;49.75;37.78;;;13.50;99.90;;;;;;5058585;28;20225;-75
2022/03/17 11:01:39;;;;;;;42.47;36.28;;;13.50;99.90;;;;;;5058802;28;20242;-76
2022/03/17 11:04:08;;;;;;;50.67;41.60;;;13.40;99.90;;;;;;5075203;28;20217;-75
2022/03/17 11:06:35;;;;;;;47.47;38.78;;;13.30;99.90;;;;;;5056412;28;20203;-76
2022/03/17 11:09:02;;;;;;;40.83;34.78;;;13.40;99.90;;;;;;5057216;28;20222;-76
2022/03/17 11:11:30;;;;;;;42.97;34.78;;;13.40;99.90;;;;;;5061583;28;20194;-76
2022/03/17 11:13:58;;;;;;;46.08;35.90;;;13.50;99.90;;;;;;5056780;28;20222;-74
2022/03/17 11:16:34;;;;;;;47.58;37.17;;;13.60;99.90;;;;;;5055611;28;20214;-76
2022/03/17 11:19:02;;;;;;;45.35;35.80;;;13.70;99.90;;;;;;5057402;28;20221;-76
2022/03/17 11:21:31;;;;;;;45.67;38.45;;;13.70;99.90;;;;;;5057951;28;20683;-76
2022/03/17 11:24:04;;;;;;;46.70;37.80;;;13.80;99.90;;;;;;5065080;28;20229;-74
2022/03/17 11:26:35;;;;;;;47.30;40.05;;;14.00;99.90;;;;;;5060123;28;20240;-75
2022/03/17 11:29:05;;;;;;;48.50;38.22;;;14.10;99.90;;;;;;5058405;28;20230;-75
2022/03/17 11:31:58;;;;;;;40.80;34.80;;;14.20;99.90;;;;;;5061632;28;20206;-74
2022/03/17 11:34:46;;;;;;;43.47;36.63;;;14.10;99.90;;;;;;5060005;28;20222;-75
2022/03/17 11:37:26;;;;;;;43.60;37.00;;;14.20;99.90;;;;;;5065368;28;20621;-74
2022/03/17 11:39:56;;;;;;;46.85;36.05;;;14.30;99.90;;;;;;5063742;28;20749;-76
2022/03/17 11:42:31;;;;;;;41.60;35.85;;;14.40;99.90;;;;;;5057702;28;20317;-77
2022/03/17 11:45:03;;;;;;;44.13;36.45;;;14.30;99.90;;;;;;5056978;28;20214;-77
2022/03/17 11:47:36;;;;;;;49.53;37.40;;;14.40;99.90;;;;;;5058336;28;20277;-77
2022/03/17 11:50:27;;;;;;;44.63;36.90;;;14.30;99.90;;;;;;5060504;28;20759;-75
2022/03/17 11:53:00;;;;;;;48.92;40.40;;;14.30;99.90;;;;;;5054385;28;20324;-77
2022/03/17 11:55:38;;;;;;;45.60;39.55;;;14.20;99.90;;;;;;5059662;28;20233;-76
2022/03/17 11:58:25;;;;;;;44.80;36.75;;;14.30;99.90;;;;;;5070431;28;20202;-77
2022/03/17 12:01:01;;;;;;;40.75;36.35;;;14.40;99.90;;;;;;5058468;28;20735;-77
2022/03/17 12:03:30;;;;;;;43.40;35.97;;;14.40;99.90;;;;;;5055856;28;20271;-77
2022/03/17 12:06:22;;;;;;;43.92;35.47;;;14.40;99.90;;;;;;5058347;28;20295;-76
2022/03/17 12:09:00;;;;;;;44.63;38.72;;;14.40;99.90;;;;;;5043247;28;20256;-75
2022/03/17 12:11:29;;;;;;;48.65;39.55;;;14.30;99.90;;;;;;5056231;28;20229;-75
2022/03/17 12:14:24;;;;;;;43.20;37.38;;;14.40;99.90;;;;;;5057348;28;20253;-77
2022/03/17 12:16:53;;;;;;;45.85;38.70;;;14.50;99.90;;;;;;5054482;28;20245;-76
2022/03/17 12:19:33;;;;;;;48.03;39.75;;;14.60;99.90;;;;;;5052460;28;20420;-76
2022/03/17 12:22:21;;;;;;;47.20;39.38;;;14.70;99.90;;;;;;5054643;28;20577;-78
2022/03/17 12:24:52;;;;;;;45.25;37.13;;;14.80;99.90;;;;;;5054399;28;20321;-77
2022/03/17 12:27:28;;;;;;;43.97;37.05;;;14.90;99.90;;;;;;5054820;28;20202;-78
2022/03/17 12:30:01;;;;;;;45.72;37.85;;;15.00;99.90;;;;;;5057079;28;20199;-77
2022/03/17 12:32:30;;;;;;;43.80;37.47;;;15.00;99.90;;;;;;5055245;28;20564;-77
2022/03/17 12:34:59;;;;;;;43.20;34.97;;;14.80;99.90;;;;;;5052726;28;20237;-78
2022/03/17 12:37:28;;;;;;;34.97;31.17;;;14.90;99.90;;;;;;5057975;28;20202;-75
2022/03/17 12:39:58;;;;;;;34.42;30.67;;;15.00;99.90;;;;;;5053307;28;20291;-77
2022/03/17 12:42:27;;;;;;;34.70;29.50;;;15.30;99.90;;;;;;5055641;28;20226;-77
2022/03/17 12:44:59;;;;;;;31.67;28.17;;;15.30;99.90;;;;;;5052303;28;20217;-76
2022/03/17 12:47:29;;;;;;;32.15;28.60;;;15.40;99.90;;;;;;5053735;28;20512;-76
2022/03/17 12:49:58;;;;;;;31.83;28.08;;;15.50;99.90;;;;;;5060362;28;20195;-77
2022/03/17 12:52:27;;;;;;;34.38;29.15;;;15.60;99.90;;;;;;5065395;28;20588;-77
2022/03/17 12:54:56;;;;;;;32.70;28.17;;;15.50;99.90;;;;;;5053981;28;20230;-76
2022/03/17 12:57:25;;;;;;;36.13;28.63;;;15.30;99.90;;;;;;5054822;28;20231;-76
2022/03/17 12:59:52;;;;;;;37.25;30.85;;;15.20;99.90;;;;;;5053239;28;20187;-76
2022/03/17 13:02:21;;;;;;;31.40;26.77;;;15.10;99.90;;;;;;5050402;28;20214;-75